PWSweather.com
Personal Weather Stations
Station Observations
KIDNAMPA57
Canyon County Idaho, Nampa, ID 83687

Canyon County IdahoNampa, ID 83687

Lat: 43.587235, Lon: -116.49831979999999

Elevation: 2615

Station Type: Davis Vantage Pro 2

www.rockinglweather.com

High Low Average
Temperature 42.1°F5.6°C 26.3°F-3.2°C 34.8°F1.6°C
Dew Point 32.8°F0.4°C 20.7°F-6.3°C 24.4°F-4.2°C
Winds 19.0 mph 30.6 kmh Calm Calm 5.0 mph SE8.0 kmh SE
Wind Gusts 19.0 mph30.6 kmh 3.0 mph4.8 kmh 11.0 mph17.7 kmh
Humidity 87% 49% 66%
Pressure 30.09 in1019.0 mb 29.85 in1010.8 mb -
Precipitation 0.00 in0.0 mm - -
Hour Temp Dew Point Humidity Winds Wind Gusts Pressure Precip Precip Rate Daily Precip Total
12:00 AM 33.3°F0.7°C 23.5°F-4.7°C 67% 4.0 mph SE6.4 kmh SE 9.0 mph14.5 kmh 30.07 in1018.3 mb 0.00 in0.0 mm 0.00 in0.0 mm 0.00 in0.0 mm
12:05 AM 33.0°F0.6°C 23.3°F-4.8°C 67% 7.0 mph SE11.3 kmh SE 9.0 mph14.5 kmh 30.07 in1018.3 mb 0.00 in0.0 mm 0.00 in0.0 mm 0.00 in0.0 mm
12:10 AM 33.0°F0.6°C 23.6°F-4.7°C 68% 3.0 mph ESE4.8 kmh ESE 9.0 mph14.5 kmh 30.07 in1018.3 mb 0.00 in0.0 mm 0.00 in0.0 mm 0.00 in0.0 mm
12:15 AM 33.0°F0.6°C 23.6°F-4.7°C 68% 6.0 mph E9.7 kmh E 11.0 mph17.7 kmh 30.07 in1018.3 mb 0.00 in0.0 mm 0.00 in0.0 mm 0.00 in0.0 mm
12:20 AM 33.1°F0.6°C 23.4°F-4.8°C 67% 5.0 mph SE8.0 kmh SE 11.0 mph17.7 kmh 30.07 in1018.3 mb 0.00 in0.0 mm 0.00 in0.0 mm 0.00 in0.0 mm
12:25 AM 33.3°F0.7°C 23.5°F-4.7°C 67% 8.0 mph ESE12.9 kmh ESE 11.0 mph17.7 kmh 30.07 in1018.3 mb 0.00 in0.0 mm 0.00 in0.0 mm 0.00 in0.0 mm
12:30 AM 33.5°F0.8°C 23.4°F-4.8°C 66% 3.0 mph ESE4.8 kmh ESE 11.0 mph17.7 kmh 30.07 in1018.3 mb 0.00 in0.0 mm 0.00 in0.0 mm 0.00 in0.0 mm
12:35 AM 33.4°F0.8°C 23.3°F-4.8°C 66% 7.0 mph ESE11.3 kmh ESE 12.0 mph19.3 kmh 30.07 in1018.3 mb 0.00 in0.0 mm 0.00 in0.0 mm 0.00 in0.0 mm
12:40 AM 33.4°F0.8°C 23.3°F-4.8°C 66% 2.0 mph E3.2 kmh E 12.0 mph19.3 kmh 30.07 in1018.3 mb 0.00 in0.0 mm 0.00 in0.0 mm 0.00 in0.0 mm
12:45 AM 33.3°F0.7°C 23.2°F-4.9°C 66% 2.0 mph SE3.2 kmh SE 12.0 mph19.3 kmh 30.07 in1018.3 mb 0.00 in0.0 mm 0.00 in0.0 mm 0.00 in0.0 mm
12:50 AM 32.9°F0.5°C 22.8°F-5.1°C 66% Calm Calm 6.0 mph9.7 kmh 30.07 in1018.3 mb 0.00 in0.0 mm 0.00 in0.0 mm 0.00 in0.0 mm
12:55 AM 32.6°F0.3°C 22.9°F-5.1°C 67% 4.0 mph SE6.4 kmh SE 9.0 mph14.5 kmh 30.07 in1018.3 mb 0.00 in0.0 mm 0.00 in0.0 mm 0.00 in0.0 mm
01:00 AM 32.4°F0.2°C 22.7°F-5.2°C 67% 3.0 mph ESE4.8 kmh ESE 9.0 mph14.5 kmh 30.08 in1018.6 mb 0.00 in0.0 mm 0.00 in0.0 mm 0.00 in0.0 mm
01:05 AM 32.2°F0.1°C 22.5°F-5.3°C 67% 2.0 mph ESE3.2 kmh ESE 8.0 mph12.9 kmh 30.08 in1018.6 mb 0.00 in0.0 mm 0.00 in0.0 mm 0.00 in0.0 mm
01:10 AM 32.1°F0.1°C 22.8°F-5.1°C 68% 4.0 mph SE6.4 kmh SE 8.0 mph12.9 kmh 30.08 in1018.6 mb 0.00 in0.0 mm 0.00 in0.0 mm 0.00 in0.0 mm
01:15 AM 32.2°F0.1°C 22.5°F-5.3°C 67% 5.0 mph ESE8.0 kmh ESE 8.0 mph12.9 kmh 30.08 in1018.6 mb 0.00 in0.0 mm 0.00 in0.0 mm 0.00 in0.0 mm
01:20 AM 31.9°F-0.1°C 22.6°F-5.2°C 68% 3.0 mph SE4.8 kmh SE 5.0 mph8.0 kmh 30.08 in1018.6 mb 0.00 in0.0 mm 0.00 in0.0 mm 0.00 in0.0 mm
01:25 AM 31.9°F-0.1°C 22.6°F-5.2°C 68% Calm Calm 7.0 mph11.3 kmh 30.08 in1018.6 mb 0.00 in0.0 mm 0.00 in0.0 mm 0.00 in0.0 mm
01:30 AM 32.0°F0.0°C 22.3°F-5.4°C 67% Calm Calm 7.0 mph11.3 kmh 30.08 in1018.6 mb 0.00 in0.0 mm 0.00 in0.0 mm 0.00 in0.0 mm
01:35 AM 32.2°F0.1°C 22.5°F-5.3°C 67% 5.0 mph ESE8.0 kmh ESE 8.0 mph12.9 kmh 30.08 in1018.6 mb 0.00 in0.0 mm 0.00 in0.0 mm 0.00 in0.0 mm
01:40 AM 32.5°F0.3°C 22.4°F-5.3°C 66% 4.0 mph SE6.4 kmh SE 9.0 mph14.5 kmh 30.08 in1018.6 mb 0.00 in0.0 mm 0.00 in0.0 mm 0.00 in0.0 mm
01:45 AM 32.5°F0.3°C 22.4°F-5.3°C 66% 3.0 mph SE4.8 kmh SE 9.0 mph14.5 kmh 30.08 in1018.6 mb 0.00 in0.0 mm 0.00 in0.0 mm 0.00 in0.0 mm
01:50 AM 32.5°F0.3°C 22.4°F-5.3°C 66% 3.0 mph SE4.8 kmh SE 8.0 mph12.9 kmh 30.08 in1018.6 mb 0.00 in0.0 mm 0.00 in0.0 mm 0.00 in0.0 mm
01:55 AM 32.4°F0.2°C 22.3°F-5.4°C 66% 2.0 mph SE3.2 kmh SE 9.0 mph14.5 kmh 30.08 in1018.6 mb 0.00 in0.0 mm 0.00 in0.0 mm 0.00 in0.0 mm
02:00 AM 32.4°F0.2°C 22.3°F-5.4°C 66% 3.0 mph ESE4.8 kmh ESE 9.0 mph14.5 kmh 30.08 in1018.6 mb 0.00 in0.0 mm 0.00 in0.0 mm 0.00 in0.0 mm
02:05 AM 32.4°F0.2°C 22.3°F-5.4°C 66% 5.0 mph SSE8.0 kmh SSE 9.0 mph14.5 kmh 30.08 in1018.6 mb 0.00 in0.0 mm 0.00 in0.0 mm 0.00 in0.0 mm
02:10 AM 32.3°F0.2°C 22.6°F-5.2°C 67% 5.0 mph SE8.0 kmh SE 9.0 mph14.5 kmh 30.08 in1018.6 mb 0.00 in0.0 mm 0.00 in0.0 mm 0.00 in0.0 mm
02:15 AM 32.2°F0.1°C 22.5°F-5.3°C 67% 7.0 mph SE11.3 kmh SE 11.0 mph17.7 kmh 30.08 in1018.6 mb 0.00 in0.0 mm 0.00 in0.0 mm 0.00 in0.0 mm
02:20 AM 32.2°F0.1°C 22.5°F-5.3°C 67% 10.0 mph SE16.1 kmh SE 10.0 mph16.1 kmh 30.08 in1018.6 mb 0.00 in0.0 mm 0.00 in0.0 mm 0.00 in0.0 mm
02:25 AM 32.2°F0.1°C 22.5°F-5.3°C 67% 8.0 mph SE12.9 kmh SE 10.0 mph16.1 kmh 30.08 in1018.6 mb 0.00 in0.0 mm 0.00 in0.0 mm 0.00 in0.0 mm
02:30 AM 32.2°F0.1°C 22.5°F-5.3°C 67% 4.0 mph SE6.4 kmh SE 10.0 mph16.1 kmh 30.08 in1018.6 mb 0.00 in0.0 mm 0.00 in0.0 mm 0.00 in0.0 mm
02:35 AM 32.2°F0.1°C 22.1°F-5.5°C 66% 6.0 mph SE9.7 kmh SE 10.0 mph16.1 kmh 30.08 in1018.6 mb 0.00 in0.0 mm 0.00 in0.0 mm 0.00 in0.0 mm
02:40 AM 32.1°F0.1°C 22.4°F-5.3°C 67% 4.0 mph SE6.4 kmh SE 10.0 mph16.1 kmh 30.09 in1019.0 mb 0.00 in0.0 mm 0.00 in0.0 mm 0.00 in0.0 mm
02:45 AM 32.0°F0.0°C 22.3°F-5.4°C 67% 5.0 mph SE8.0 kmh SE 11.0 mph17.7 kmh 30.09 in1019.0 mb 0.00 in0.0 mm 0.00 in0.0 mm 0.00 in0.0 mm
02:50 AM 32.0°F0.0°C 22.3°F-5.4°C 67% 2.0 mph SE3.2 kmh SE 10.0 mph16.1 kmh 30.09 in1019.0 mb 0.00 in0.0 mm 0.00 in0.0 mm 0.00 in0.0 mm
02:55 AM 31.7°F-0.2°C 22.0°F-5.6°C 67% 8.0 mph SSE12.9 kmh SSE 10.0 mph16.1 kmh 30.09 in1019.0 mb 0.00 in0.0 mm 0.00 in0.0 mm 0.00 in0.0 mm
03:00 AM 31.4°F-0.3°C 22.1°F-5.5°C 68% 6.0 mph SE9.7 kmh SE 10.0 mph16.1 kmh 30.08 in1018.6 mb 0.00 in0.0 mm 0.00 in0.0 mm 0.00 in0.0 mm
03:05 AM 31.3°F-0.4°C 22.0°F-5.6°C 68% 5.0 mph SSE8.0 kmh SSE 12.0 mph19.3 kmh 30.08 in1018.6 mb 0.00 in0.0 mm 0.00 in0.0 mm 0.00 in0.0 mm
03:10 AM 31.2°F-0.4°C 21.9°F-5.6°C 68% 3.0 mph SE4.8 kmh SE 12.0 mph19.3 kmh 30.08 in1018.6 mb 0.00 in0.0 mm 0.00 in0.0 mm 0.00 in0.0 mm
03:15 AM 30.9°F-0.6°C 21.9°F-5.6°C 69% 4.0 mph SSE6.4 kmh SSE 12.0 mph19.3 kmh 30.08 in1018.6 mb 0.00 in0.0 mm 0.00 in0.0 mm 0.00 in0.0 mm
03:20 AM 30.7°F-0.7°C 21.8°F-5.7°C 69% 5.0 mph SSE8.0 kmh SSE 9.0 mph14.5 kmh 30.08 in1018.6 mb 0.00 in0.0 mm 0.00 in0.0 mm 0.00 in0.0 mm
03:25 AM 30.4°F-0.9°C 21.5°F-5.8°C 69% 4.0 mph ESE6.4 kmh ESE 9.0 mph14.5 kmh 30.08 in1018.6 mb 0.00 in0.0 mm 0.00 in0.0 mm 0.00 in0.0 mm
03:30 AM 30.1°F-1.1°C 21.5°F-5.8°C 70% 5.0 mph SE8.0 kmh SE 9.0 mph14.5 kmh 30.08 in1018.6 mb 0.00 in0.0 mm 0.00 in0.0 mm 0.00 in0.0 mm
03:35 AM 29.7°F-1.3°C 21.5°F-5.8°C 71% 5.0 mph S8.0 kmh S 7.0 mph11.3 kmh 30.07 in1018.3 mb 0.00 in0.0 mm 0.00 in0.0 mm 0.00 in0.0 mm
03:40 AM 29.5°F-1.4°C 21.6°F-5.8°C 72% 5.0 mph SE8.0 kmh SE 7.0 mph11.3 kmh 30.07 in1018.3 mb 0.00 in0.0 mm 0.00 in0.0 mm 0.00 in0.0 mm
03:45 AM 29.4°F-1.4°C 21.5°F-5.8°C 72% 6.0 mph SSE9.7 kmh SSE 8.0 mph12.9 kmh 30.07 in1018.3 mb 0.00 in0.0 mm 0.00 in0.0 mm 0.00 in0.0 mm
03:50 AM 29.2°F-1.6°C 21.3°F-5.9°C 72% 2.0 mph SSE3.2 kmh SSE 7.0 mph11.3 kmh 30.07 in1018.3 mb 0.00 in0.0 mm 0.00 in0.0 mm 0.00 in0.0 mm
03:55 AM 28.9°F-1.7°C 21.4°F-5.9°C 73% 4.0 mph SE6.4 kmh SE 8.0 mph12.9 kmh 30.08 in1018.6 mb 0.00 in0.0 mm 0.00 in0.0 mm 0.00 in0.0 mm
04:00 AM 28.6°F-1.9°C 21.1°F-6.1°C 73% 2.0 mph S3.2 kmh S 8.0 mph12.9 kmh 30.08 in1018.6 mb 0.00 in0.0 mm 0.00 in0.0 mm 0.00 in0.0 mm
04:05 AM 28.4°F-2.0°C 21.2°F-6.0°C 74% 2.0 mph SE3.2 kmh SE 6.0 mph9.7 kmh 30.08 in1018.6 mb 0.00 in0.0 mm 0.00 in0.0 mm 0.00 in0.0 mm
04:10 AM 28.3°F-2.1°C 21.1°F-6.1°C 74% 2.0 mph S3.2 kmh S 6.0 mph9.7 kmh 30.08 in1018.6 mb 0.00 in0.0 mm 0.00 in0.0 mm 0.00 in0.0 mm
04:15 AM 28.2°F-2.1°C 21.0°F-6.1°C 74% 4.0 mph SE6.4 kmh SE 7.0 mph11.3 kmh 30.07 in1018.3 mb 0.00 in0.0 mm 0.00 in0.0 mm 0.00 in0.0 mm
04:20 AM 28.1°F-2.2°C 21.2°F-6.0°C 75% 3.0 mph SE4.8 kmh SE 6.0 mph9.7 kmh 30.07 in1018.3 mb 0.00 in0.0 mm 0.00 in0.0 mm 0.00 in0.0 mm
04:25 AM 28.1°F-2.2°C 21.2°F-6.0°C 75% 3.0 mph S4.8 kmh S 8.0 mph12.9 kmh 30.07 in1018.3 mb 0.00 in0.0 mm 0.00 in0.0 mm 0.00 in0.0 mm
04:30 AM 28.0°F-2.2°C 21.1°F-6.1°C 75% 7.0 mph SSE11.3 kmh SSE 9.0 mph14.5 kmh 30.06 in1017.9 mb 0.00 in0.0 mm 0.00 in0.0 mm 0.00 in0.0 mm
04:35 AM 28.0°F-2.2°C 21.1°F-6.1°C 75% 3.0 mph SSE4.8 kmh SSE 9.0 mph14.5 kmh 30.06 in1017.9 mb 0.00 in0.0 mm 0.00 in0.0 mm 0.00 in0.0 mm
04:40 AM 27.8°F-2.3°C 20.9°F-6.2°C 75% 3.0 mph SSE4.8 kmh SSE 9.0 mph14.5 kmh 30.06 in1017.9 mb 0.00 in0.0 mm 0.00 in0.0 mm 0.00 in0.0 mm
04:45 AM 27.7°F-2.4°C 20.8°F-6.2°C 75% 6.0 mph SSE9.7 kmh SSE 9.0 mph14.5 kmh 30.06 in1017.9 mb 0.00 in0.0 mm 0.00 in0.0 mm 0.00 in0.0 mm
04:50 AM 27.6°F-2.4°C 21.0°F-6.1°C 76% 5.0 mph SE8.0 kmh SE 9.0 mph14.5 kmh 30.06 in1017.9 mb 0.00 in0.0 mm 0.00 in0.0 mm 0.00 in0.0 mm
04:55 AM 27.5°F-2.5°C 20.9°F-6.2°C 76% 8.0 mph SSE12.9 kmh SSE 9.0 mph14.5 kmh 30.06 in1017.9 mb 0.00 in0.0 mm 0.00 in0.0 mm 0.00 in0.0 mm
05:00 AM 27.4°F-2.6°C 20.8°F-6.2°C 76% 2.0 mph SE3.2 kmh SE 9.0 mph14.5 kmh 30.06 in1017.9 mb 0.00 in0.0 mm 0.00 in0.0 mm 0.00 in0.0 mm
05:05 AM 27.3°F-2.6°C 20.8°F-6.2°C 76% 2.0 mph S3.2 kmh S 7.0 mph11.3 kmh 30.06 in1017.9 mb 0.00 in0.0 mm 0.00 in0.0 mm 0.00 in0.0 mm
05:10 AM 27.4°F-2.6°C 20.8°F-6.2°C 76% 4.0 mph SE6.4 kmh SE 8.0 mph12.9 kmh 30.07 in1018.3 mb 0.00 in0.0 mm 0.00 in0.0 mm 0.00 in0.0 mm
05:15 AM 27.6°F-2.4°C 21.0°F-6.1°C 76% 4.0 mph SSE6.4 kmh SSE 10.0 mph16.1 kmh 30.06 in1017.9 mb 0.00 in0.0 mm 0.00 in0.0 mm 0.00 in0.0 mm
05:20 AM 27.6°F-2.4°C 21.0°F-6.1°C 76% 3.0 mph SSE4.8 kmh SSE 8.0 mph12.9 kmh 30.07 in1018.3 mb 0.00 in0.0 mm 0.00 in0.0 mm 0.00 in0.0 mm
05:25 AM 27.6°F-2.4°C 21.0°F-6.1°C 76% 4.0 mph S6.4 kmh S 9.0 mph14.5 kmh 30.07 in1018.3 mb 0.00 in0.0 mm 0.00 in0.0 mm 0.00 in0.0 mm
05:30 AM 27.4°F-2.6°C 20.8°F-6.2°C 76% 4.0 mph S6.4 kmh S 9.0 mph14.5 kmh 30.07 in1018.3 mb 0.00 in0.0 mm 0.00 in0.0 mm 0.00 in0.0 mm
05:35 AM 27.3°F-2.6°C 20.8°F-6.2°C 76% 3.0 mph S4.8 kmh S 6.0 mph9.7 kmh 30.07 in1018.3 mb 0.00 in0.0 mm 0.00 in0.0 mm 0.00 in0.0 mm
05:40 AM 27.5°F-2.5°C 20.9°F-6.2°C 76% 1.0 mph S1.6 kmh S 8.0 mph12.9 kmh 30.07 in1018.3 mb 0.00 in0.0 mm 0.00 in0.0 mm 0.00 in0.0 mm
05:45 AM 27.5°F-2.5°C 20.9°F-6.2°C 76% 1.0 mph SSE1.6 kmh SSE 8.0 mph12.9 kmh 30.07 in1018.3 mb 0.00 in0.0 mm 0.00 in0.0 mm 0.00 in0.0 mm
05:50 AM 27.6°F-2.4°C 21.0°F-6.1°C 76% 2.0 mph SSE3.2 kmh SSE 6.0 mph9.7 kmh 30.07 in1018.3 mb 0.00 in0.0 mm 0.00 in0.0 mm 0.00 in0.0 mm
05:55 AM 27.5°F-2.5°C 20.9°F-6.2°C 76% 5.0 mph SE8.0 kmh SE 7.0 mph11.3 kmh 30.07 in1018.3 mb 0.00 in0.0 mm 0.00 in0.0 mm 0.00 in0.0 mm
06:00 AM 27.4°F-2.6°C 20.8°F-6.2°C 76% 5.0 mph SE8.0 kmh SE 8.0 mph12.9 kmh 30.06 in1017.9 mb 0.00 in0.0 mm 0.00 in0.0 mm 0.00 in0.0 mm
06:05 AM 27.3°F-2.6°C 20.8°F-6.2°C 76% 4.0 mph SE6.4 kmh SE 9.0 mph14.5 kmh 30.06 in1017.9 mb 0.00 in0.0 mm 0.00 in0.0 mm 0.00 in0.0 mm
06:10 AM 27.1°F-2.7°C 20.9°F-6.2°C 77% 4.0 mph SE6.4 kmh SE 9.0 mph14.5 kmh 30.06 in1017.9 mb 0.00 in0.0 mm 0.00 in0.0 mm 0.00 in0.0 mm
06:15 AM 27.1°F-2.7°C 20.9°F-6.2°C 77% 3.0 mph SE4.8 kmh SE 9.0 mph14.5 kmh 30.06 in1017.9 mb 0.00 in0.0 mm 0.00 in0.0 mm 0.00 in0.0 mm
06:20 AM 27.1°F-2.7°C 20.9°F-6.2°C 77% 2.0 mph SE3.2 kmh SE 8.0 mph12.9 kmh 30.06 in1017.9 mb 0.00 in0.0 mm 0.00 in0.0 mm 0.00 in0.0 mm
06:25 AM 27.0°F-2.8°C 20.8°F-6.2°C 77% 4.0 mph SE6.4 kmh SE 8.0 mph12.9 kmh 30.06 in1017.9 mb 0.00 in0.0 mm 0.00 in0.0 mm 0.00 in0.0 mm
06:30 AM 26.9°F-2.8°C 20.7°F-6.3°C 77% 1.0 mph SE1.6 kmh SE 8.0 mph12.9 kmh 30.06 in1017.9 mb 0.00 in0.0 mm 0.00 in0.0 mm 0.00 in0.0 mm
06:35 AM 26.8°F-2.9°C 20.9°F-6.2°C 78% 3.0 mph SSE4.8 kmh SSE 6.0 mph9.7 kmh 30.06 in1017.9 mb 0.00 in0.0 mm 0.00 in0.0 mm 0.00 in0.0 mm
06:40 AM 26.9°F-2.8°C 21.0°F-6.1°C 78% 6.0 mph S9.7 kmh S 6.0 mph9.7 kmh 30.06 in1017.9 mb 0.00 in0.0 mm 0.00 in0.0 mm 0.00 in0.0 mm
06:45 AM 27.0°F-2.8°C 21.1°F-6.1°C 78% 7.0 mph S11.3 kmh S 8.0 mph12.9 kmh 30.06 in1017.9 mb 0.00 in0.0 mm 0.00 in0.0 mm 0.00 in0.0 mm
06:50 AM 27.1°F-2.7°C 21.2°F-6.0°C 78% 2.0 mph SE3.2 kmh SE 7.0 mph11.3 kmh 30.06 in1017.9 mb 0.00 in0.0 mm 0.00 in0.0 mm 0.00 in0.0 mm
06:55 AM 27.0°F-2.8°C 21.1°F-6.1°C 78% 6.0 mph SSE9.7 kmh SSE 7.0 mph11.3 kmh 30.05 in1017.6 mb 0.00 in0.0 mm 0.00 in0.0 mm 0.00 in0.0 mm
07:00 AM 27.0°F-2.8°C 21.1°F-6.1°C 78% 2.0 mph SSE3.2 kmh SSE 7.0 mph11.3 kmh 30.05 in1017.6 mb 0.00 in0.0 mm 0.00 in0.0 mm 0.00 in0.0 mm
07:05 AM 26.8°F-2.9°C 20.9°F-6.2°C 78% 4.0 mph SSW6.4 kmh SSW 9.0 mph14.5 kmh 30.05 in1017.6 mb 0.00 in0.0 mm 0.00 in0.0 mm 0.00 in0.0 mm
07:10 AM 26.6°F-3.0°C 20.7°F-6.3°C 78% 2.0 mph SSW3.2 kmh SSW 9.0 mph14.5 kmh 30.05 in1017.6 mb 0.00 in0.0 mm 0.00 in0.0 mm 0.00 in0.0 mm
07:15 AM 26.5°F-3.1°C 20.9°F-6.2°C 79% 1.0 mph S1.6 kmh S 9.0 mph14.5 kmh 30.05 in1017.6 mb 0.00 in0.0 mm 0.00 in0.0 mm 0.00 in0.0 mm
07:20 AM 26.5°F-3.1°C 20.9°F-6.2°C 79% 2.0 mph SSE3.2 kmh SSE 4.0 mph6.4 kmh 30.05 in1017.6 mb 0.00 in0.0 mm 0.00 in0.0 mm 0.00 in0.0 mm
07:25 AM 26.4°F-3.1°C 20.8°F-6.2°C 79% 2.0 mph SSE3.2 kmh SSE 4.0 mph6.4 kmh 30.05 in1017.6 mb 0.00 in0.0 mm 0.00 in0.0 mm 0.00 in0.0 mm
07:30 AM 26.4°F-3.1°C 20.8°F-6.2°C 79% 2.0 mph SE3.2 kmh SE 7.0 mph11.3 kmh 30.05 in1017.6 mb 0.00 in0.0 mm 0.00 in0.0 mm 0.00 in0.0 mm
07:35 AM 26.5°F-3.1°C 20.9°F-6.2°C 79% 2.0 mph SE3.2 kmh SE 5.0 mph8.0 kmh 30.05 in1017.6 mb 0.00 in0.0 mm 0.00 in0.0 mm 0.00 in0.0 mm
07:40 AM 26.4°F-3.1°C 20.8°F-6.2°C 79% 2.0 mph SE3.2 kmh SE 5.0 mph8.0 kmh 30.05 in1017.6 mb 0.00 in0.0 mm 0.00 in0.0 mm 0.00 in0.0 mm
07:45 AM 26.4°F-3.1°C 20.8°F-6.2°C 79% 4.0 mph SE6.4 kmh SE 5.0 mph8.0 kmh 30.05 in1017.6 mb 0.00 in0.0 mm 0.00 in0.0 mm 0.00 in0.0 mm
07:50 AM 26.4°F-3.1°C 20.8°F-6.2°C 79% 1.0 mph SSE1.6 kmh SSE 3.0 mph4.8 kmh 30.05 in1017.6 mb 0.00 in0.0 mm 0.00 in0.0 mm 0.00 in0.0 mm
07:55 AM 26.4°F-3.1°C 20.8°F-6.2°C 79% Calm Calm 4.0 mph6.4 kmh 30.05 in1017.6 mb 0.00 in0.0 mm 0.00 in0.0 mm 0.00 in0.0 mm
08:00 AM 26.3°F-3.2°C 20.7°F-6.3°C 79% 1.0 mph SE1.6 kmh SE 4.0 mph6.4 kmh 30.06 in1017.9 mb 0.00 in0.0 mm 0.00 in0.0 mm 0.00 in0.0 mm
08:05 AM 26.4°F-3.1°C 20.8°F-6.2°C 79% 1.0 mph SE1.6 kmh SE 5.0 mph8.0 kmh 30.06 in1017.9 mb 0.00 in0.0 mm 0.00 in0.0 mm 0.00 in0.0 mm
08:10 AM 26.6°F-3.0°C 21.0°F-6.1°C 79% 2.0 mph SSE3.2 kmh SSE 5.0 mph8.0 kmh 30.06 in1017.9 mb 0.00 in0.0 mm 0.00 in0.0 mm 0.00 in0.0 mm
08:15 AM 26.6°F-3.0°C 20.7°F-6.3°C 78% 3.0 mph S4.8 kmh S 5.0 mph8.0 kmh 30.06 in1017.9 mb 0.00 in0.0 mm 0.00 in0.0 mm 0.00 in0.0 mm
08:20 AM 26.8°F-2.9°C 20.9°F-6.2°C 78% 2.0 mph SE3.2 kmh SE 5.0 mph8.0 kmh 30.06 in1017.9 mb 0.00 in0.0 mm 0.00 in0.0 mm 0.00 in0.0 mm
08:25 AM 27.0°F-2.8°C 21.1°F-6.1°C 78% 2.0 mph SSE3.2 kmh SSE 5.0 mph8.0 kmh 30.05 in1017.6 mb 0.00 in0.0 mm 0.00 in0.0 mm 0.00 in0.0 mm
08:30 AM 27.7°F-2.4°C 21.1°F-6.1°C 76% 4.0 mph SSE6.4 kmh SSE 7.0 mph11.3 kmh 30.05 in1017.6 mb 0.00 in0.0 mm 0.00 in0.0 mm 0.00 in0.0 mm
08:35 AM 28.0°F-2.2°C 21.1°F-6.1°C 75% 4.0 mph S6.4 kmh S 6.0 mph9.7 kmh 30.06 in1017.9 mb 0.00 in0.0 mm 0.00 in0.0 mm 0.00 in0.0 mm
08:40 AM 28.1°F-2.2°C 21.2°F-6.0°C 75% 3.0 mph S4.8 kmh S 7.0 mph11.3 kmh 30.06 in1017.9 mb 0.00 in0.0 mm 0.00 in0.0 mm 0.00 in0.0 mm
08:45 AM 27.9°F-2.3°C 21.0°F-6.1°C 75% 4.0 mph S6.4 kmh S 7.0 mph11.3 kmh 30.05 in1017.6 mb 0.00 in0.0 mm 0.00 in0.0 mm 0.00 in0.0 mm
08:50 AM 27.6°F-2.4°C 21.0°F-6.1°C 76% 6.0 mph S9.7 kmh S 9.0 mph14.5 kmh 30.05 in1017.6 mb 0.00 in0.0 mm 0.00 in0.0 mm 0.00 in0.0 mm
08:55 AM 27.5°F-2.5°C 21.3°F-5.9°C 77% 5.0 mph S8.0 kmh S 9.0 mph14.5 kmh 30.05 in1017.6 mb 0.00 in0.0 mm 0.00 in0.0 mm 0.00 in0.0 mm
09:00 AM 27.6°F-2.4°C 21.4°F-5.9°C 77% 2.0 mph SSE3.2 kmh SSE 9.0 mph14.5 kmh 30.05 in1017.6 mb 0.00 in0.0 mm 0.00 in0.0 mm 0.00 in0.0 mm
09:05 AM 27.9°F-2.3°C 21.6°F-5.8°C 77% 7.0 mph SSE11.3 kmh SSE 9.0 mph14.5 kmh 30.05 in1017.6 mb 0.00 in0.0 mm 0.00 in0.0 mm 0.00 in0.0 mm
09:10 AM 28.4°F-2.0°C 21.8°F-5.7°C 76% 6.0 mph SE9.7 kmh SE 10.0 mph16.1 kmh 30.05 in1017.6 mb 0.00 in0.0 mm 0.00 in0.0 mm 0.00 in0.0 mm
09:15 AM 28.7°F-1.8°C 22.1°F-5.5°C 76% 7.0 mph S11.3 kmh S 10.0 mph16.1 kmh 30.05 in1017.6 mb 0.00 in0.0 mm 0.00 in0.0 mm 0.00 in0.0 mm
09:20 AM 29.0°F-1.7°C 22.1°F-5.5°C 75% 4.0 mph S6.4 kmh S 7.0 mph11.3 kmh 30.05 in1017.6 mb 0.00 in0.0 mm 0.00 in0.0 mm 0.00 in0.0 mm
09:25 AM 29.4°F-1.4°C 22.5°F-5.3°C 75% 2.0 mph S3.2 kmh S 7.0 mph11.3 kmh 30.05 in1017.6 mb 0.00 in0.0 mm 0.00 in0.0 mm 0.00 in0.0 mm
09:30 AM 29.6°F-1.3°C 22.7°F-5.2°C 75% 4.0 mph S6.4 kmh S 7.0 mph11.3 kmh 30.05 in1017.6 mb 0.00 in0.0 mm 0.00 in0.0 mm 0.00 in0.0 mm
09:35 AM 29.9°F-1.2°C 22.6°F-5.2°C 74% 1.0 mph S1.6 kmh S 5.0 mph8.0 kmh 30.05 in1017.6 mb 0.00 in0.0 mm 0.00 in0.0 mm 0.00 in0.0 mm
09:40 AM 30.2°F-1.0°C 22.9°F-5.1°C 74% 1.0 mph S1.6 kmh S 5.0 mph8.0 kmh 30.05 in1017.6 mb 0.00 in0.0 mm 0.00 in0.0 mm 0.00 in0.0 mm
09:45 AM 30.9°F-0.6°C 23.0°F-5.0°C 72% 5.0 mph S8.0 kmh S 11.0 mph17.7 kmh 30.05 in1017.6 mb 0.00 in0.0 mm 0.00 in0.0 mm 0.00 in0.0 mm
09:50 AM 31.7°F-0.2°C 23.1°F-4.9°C 70% 6.0 mph SE9.7 kmh SE 15.0 mph24.1 kmh 30.05 in1017.6 mb 0.00 in0.0 mm 0.00 in0.0 mm 0.00 in0.0 mm
09:55 AM 32.2°F0.1°C 22.8°F-5.1°C 68% 6.0 mph SE9.7 kmh SE 15.0 mph24.1 kmh 30.04 in1017.3 mb 0.00 in0.0 mm 0.00 in0.0 mm 0.00 in0.0 mm
10:00 AM 32.4°F0.2°C 23.0°F-5.0°C 68% 3.0 mph S4.8 kmh S 15.0 mph24.1 kmh 30.04 in1017.3 mb 0.00 in0.0 mm 0.00 in0.0 mm 0.00 in0.0 mm
10:05 AM 32.7°F0.4°C 23.0°F-5.0°C 67% 6.0 mph S9.7 kmh S 10.0 mph16.1 kmh 30.04 in1017.3 mb 0.00 in0.0 mm 0.00 in0.0 mm 0.00 in0.0 mm
10:10 AM 33.1°F0.6°C 23.4°F-4.8°C 67% 7.0 mph S11.3 kmh S 11.0 mph17.7 kmh 30.04 in1017.3 mb 0.00 in0.0 mm 0.00 in0.0 mm 0.00 in0.0 mm
10:15 AM 33.4°F0.8°C 23.3°F-4.8°C 66% 5.0 mph SSE8.0 kmh SSE 13.0 mph20.9 kmh 30.03 in1016.9 mb 0.00 in0.0 mm 0.00 in0.0 mm 0.00 in0.0 mm
10:20 AM 33.0°F0.6°C 23.6°F-4.7°C 68% 7.0 mph SE11.3 kmh SE 13.0 mph20.9 kmh 30.03 in1016.9 mb 0.00 in0.0 mm 0.00 in0.0 mm 0.00 in0.0 mm
10:25 AM 33.8°F1.0°C 23.3°F-4.8°C 65% 6.0 mph SSE9.7 kmh SSE 17.0 mph27.4 kmh 30.04 in1017.3 mb 0.00 in0.0 mm 0.00 in0.0 mm 0.00 in0.0 mm
10:30 AM 34.3°F1.3°C 23.0°F-5.0°C 63% 11.0 mph E17.7 kmh E 17.0 mph27.4 kmh 30.03 in1016.9 mb 0.00 in0.0 mm 0.00 in0.0 mm 0.00 in0.0 mm
10:35 AM 34.4°F1.3°C 23.1°F-4.9°C 63% 10.0 mph SE16.1 kmh SE 16.0 mph25.7 kmh 30.03 in1016.9 mb 0.00 in0.0 mm 0.00 in0.0 mm 0.00 in0.0 mm
10:40 AM 34.6°F1.4°C 22.9°F-5.1°C 62% 8.0 mph S12.9 kmh S 16.0 mph25.7 kmh 30.02 in1016.6 mb 0.00 in0.0 mm 0.00 in0.0 mm 0.00 in0.0 mm
10:45 AM 34.8°F1.6°C 23.1°F-4.9°C 62% 12.0 mph S19.3 kmh S 16.0 mph25.7 kmh 30.02 in1016.6 mb 0.00 in0.0 mm 0.00 in0.0 mm 0.00 in0.0 mm
10:50 AM 34.8°F1.6°C 23.1°F-4.9°C 62% 8.0 mph SE12.9 kmh SE 11.0 mph17.7 kmh 30.02 in1016.6 mb 0.00 in0.0 mm 0.00 in0.0 mm 0.00 in0.0 mm
10:55 AM 34.9°F1.6°C 23.6°F-4.7°C 63% 5.0 mph SE8.0 kmh SE 14.0 mph22.5 kmh 30.02 in1016.6 mb 0.00 in0.0 mm 0.00 in0.0 mm 0.00 in0.0 mm
11:00 AM 35.0°F1.7°C 23.3°F-4.8°C 62% 11.0 mph SE17.7 kmh SE 18.0 mph29.0 kmh 30.02 in1016.6 mb 0.00 in0.0 mm 0.00 in0.0 mm 0.00 in0.0 mm
11:05 AM 35.4°F1.9°C 23.7°F-4.6°C 62% 2.0 mph SE3.2 kmh SE 15.0 mph24.1 kmh 30.02 in1016.6 mb 0.00 in0.0 mm 0.00 in0.0 mm 0.00 in0.0 mm
11:10 AM 35.7°F2.1°C 24.0°F-4.4°C 62% 12.0 mph SE19.3 kmh SE 15.0 mph24.1 kmh 30.02 in1016.6 mb 0.00 in0.0 mm 0.00 in0.0 mm 0.00 in0.0 mm
11:15 AM 36.0°F2.2°C 24.3°F-4.3°C 62% 5.0 mph S8.0 kmh S 15.0 mph24.1 kmh 30.02 in1016.6 mb 0.00 in0.0 mm 0.00 in0.0 mm 0.00 in0.0 mm
11:20 AM 36.4°F2.4°C 24.3°F-4.3°C 61% 4.0 mph SSE6.4 kmh SSE 14.0 mph22.5 kmh 30.02 in1016.6 mb 0.00 in0.0 mm 0.00 in0.0 mm 0.00 in0.0 mm
11:25 AM 36.5°F2.5°C 24.3°F-4.3°C 61% 3.0 mph SE4.8 kmh SE 14.0 mph22.5 kmh 30.02 in1016.6 mb 0.00 in0.0 mm 0.00 in0.0 mm 0.00 in0.0 mm
11:30 AM 36.7°F2.6°C 24.5°F-4.2°C 61% 4.0 mph SSE6.4 kmh SSE 14.0 mph22.5 kmh 30.02 in1016.6 mb 0.00 in0.0 mm 0.00 in0.0 mm 0.00 in0.0 mm
11:35 AM 36.8°F2.7°C 24.6°F-4.1°C 61% 5.0 mph SSE8.0 kmh SSE 13.0 mph20.9 kmh 30.03 in1016.9 mb 0.00 in0.0 mm 0.00 in0.0 mm 0.00 in0.0 mm
11:40 AM 36.9°F2.7°C 24.3°F-4.3°C 60% 3.0 mph SE4.8 kmh SE 14.0 mph22.5 kmh 30.03 in1016.9 mb 0.00 in0.0 mm 0.00 in0.0 mm 0.00 in0.0 mm
11:45 AM 37.0°F2.8°C 24.4°F-4.2°C 60% 6.0 mph SE9.7 kmh SE 14.0 mph22.5 kmh 30.02 in1016.6 mb 0.00 in0.0 mm 0.00 in0.0 mm 0.00 in0.0 mm
11:50 AM 37.2°F2.9°C 24.2°F-4.3°C 59% 1.0 mph SW1.6 kmh SW 11.0 mph17.7 kmh 30.02 in1016.6 mb 0.00 in0.0 mm 0.00 in0.0 mm 0.00 in0.0 mm
11:55 AM 37.4°F3.0°C 24.4°F-4.2°C 59% 6.0 mph SE9.7 kmh SE 13.0 mph20.9 kmh 30.02 in1016.6 mb 0.00 in0.0 mm 0.00 in0.0 mm 0.00 in0.0 mm
12:00 PM 37.7°F3.2°C 24.7°F-4.1°C 59% 4.0 mph SE6.4 kmh SE 13.0 mph20.9 kmh 30.02 in1016.6 mb 0.00 in0.0 mm 0.00 in0.0 mm 0.00 in0.0 mm
12:05 PM 38.0°F3.3°C 24.6°F-4.1°C 58% 6.0 mph SSE9.7 kmh SSE 11.0 mph17.7 kmh 30.02 in1016.6 mb 0.00 in0.0 mm 0.00 in0.0 mm 0.00 in0.0 mm
12:10 PM 38.2°F3.4°C 24.7°F-4.1°C 58% 4.0 mph SSE6.4 kmh SSE 13.0 mph20.9 kmh 30.01 in1016.3 mb 0.00 in0.0 mm 0.00 in0.0 mm 0.00 in0.0 mm
12:15 PM 38.4°F3.6°C 24.9°F-3.9°C 58% 7.0 mph S11.3 kmh S 13.0 mph20.9 kmh 30.02 in1016.6 mb 0.00 in0.0 mm 0.00 in0.0 mm 0.00 in0.0 mm
12:20 PM 38.6°F3.7°C 25.1°F-3.8°C 58% 9.0 mph S14.5 kmh S 14.0 mph22.5 kmh 30.02 in1016.6 mb 0.00 in0.0 mm 0.00 in0.0 mm 0.00 in0.0 mm
12:25 PM 38.8°F3.8°C 24.9°F-3.9°C 57% 13.0 mph SE20.9 kmh SE 14.0 mph22.5 kmh 30.01 in1016.3 mb 0.00 in0.0 mm 0.00 in0.0 mm 0.00 in0.0 mm
12:30 PM 38.9°F3.8°C 25.4°F-3.7°C 58% 2.0 mph SE3.2 kmh SE 14.0 mph22.5 kmh 30.01 in1016.3 mb 0.00 in0.0 mm 0.00 in0.0 mm 0.00 in0.0 mm
12:35 PM 39.1°F3.9°C 25.2°F-3.8°C 57% 6.0 mph SE9.7 kmh SE 16.0 mph25.7 kmh 30.00 in1015.9 mb 0.00 in0.0 mm 0.00 in0.0 mm 0.00 in0.0 mm
12:40 PM 39.2°F4.0°C 25.3°F-3.7°C 57% 5.0 mph SE8.0 kmh SE 16.0 mph25.7 kmh 30.00 in1015.9 mb 0.00 in0.0 mm 0.00 in0.0 mm 0.00 in0.0 mm
12:45 PM 39.2°F4.0°C 24.8°F-4.0°C 56% 9.0 mph SE14.5 kmh SE 16.0 mph25.7 kmh 30.00 in1015.9 mb 0.00 in0.0 mm 0.00 in0.0 mm 0.00 in0.0 mm
12:50 PM 39.4°F4.1°C 25.0°F-3.9°C 56% 4.0 mph SE6.4 kmh SE 14.0 mph22.5 kmh 30.00 in1015.9 mb 0.00 in0.0 mm 0.00 in0.0 mm 0.00 in0.0 mm
12:55 PM 39.6°F4.2°C 25.2°F-3.8°C 56% 8.0 mph SE12.9 kmh SE 18.0 mph29.0 kmh 30.00 in1015.9 mb 0.00 in0.0 mm 0.00 in0.0 mm 0.00 in0.0 mm
01:00 PM 39.8°F4.3°C 25.0°F-3.9°C 55% 10.0 mph SSE16.1 kmh SSE 18.0 mph29.0 kmh 30.00 in1015.9 mb 0.00 in0.0 mm 0.00 in0.0 mm 0.00 in0.0 mm
01:05 PM 40.1°F4.5°C 25.3°F-3.7°C 55% 6.0 mph SSE9.7 kmh SSE 16.0 mph25.7 kmh 29.99 in1015.6 mb 0.00 in0.0 mm 0.00 in0.0 mm 0.00 in0.0 mm
01:10 PM 40.4°F4.7°C 25.5°F-3.6°C 55% 8.0 mph SSE12.9 kmh SSE 16.0 mph25.7 kmh 29.99 in1015.6 mb 0.00 in0.0 mm 0.00 in0.0 mm 0.00 in0.0 mm
01:15 PM 40.6°F4.8°C 25.7°F-3.5°C 55% 10.0 mph SSE16.1 kmh SSE 16.0 mph25.7 kmh 29.99 in1015.6 mb 0.00 in0.0 mm 0.00 in0.0 mm 0.00 in0.0 mm
01:20 PM 40.8°F4.9°C 25.5°F-3.6°C 54% Calm Calm 12.0 mph19.3 kmh 29.98 in1015.2 mb 0.00 in0.0 mm 0.00 in0.0 mm 0.00 in0.0 mm
01:25 PM 41.1°F5.1°C 25.3°F-3.7°C 53% 6.0 mph ESE9.7 kmh ESE 13.0 mph20.9 kmh 29.98 in1015.2 mb 0.00 in0.0 mm 0.00 in0.0 mm 0.00 in0.0 mm
01:30 PM 41.2°F5.1°C 25.4°F-3.7°C 53% 19.0 mph SE30.6 kmh SE 19.0 mph30.6 kmh 29.98 in1015.2 mb 0.00 in0.0 mm 0.00 in0.0 mm 0.00 in0.0 mm
01:35 PM 41.3°F5.2°C 25.0°F-3.9°C 52% 10.0 mph SE16.1 kmh SE 16.0 mph25.7 kmh 29.98 in1015.2 mb 0.00 in0.0 mm 0.00 in0.0 mm 0.00 in0.0 mm
01:40 PM 41.3°F5.2°C 24.6°F-4.1°C 51% 9.0 mph SE14.5 kmh SE 19.0 mph30.6 kmh 29.98 in1015.2 mb 0.00 in0.0 mm 0.00 in0.0 mm 0.00 in0.0 mm
01:45 PM 41.3°F5.2°C 25.0°F-3.9°C 52% 13.0 mph SE20.9 kmh SE 19.0 mph30.6 kmh 29.98 in1015.2 mb 0.00 in0.0 mm 0.00 in0.0 mm 0.00 in0.0 mm
01:50 PM 41.3°F5.2°C 25.0°F-3.9°C 52% 5.0 mph S8.0 kmh S 13.0 mph20.9 kmh 29.98 in1015.2 mb 0.00 in0.0 mm 0.00 in0.0 mm 0.00 in0.0 mm
01:55 PM 41.3°F5.2°C 25.5°F-3.6°C 53% 8.0 mph SE12.9 kmh SE 13.0 mph20.9 kmh 29.97 in1014.9 mb 0.00 in0.0 mm 0.00 in0.0 mm 0.00 in0.0 mm
02:00 PM 41.2°F5.1°C 24.9°F-3.9°C 52% 9.0 mph ESE14.5 kmh ESE 13.0 mph20.9 kmh 29.96 in1014.6 mb 0.00 in0.0 mm 0.00 in0.0 mm 0.00 in0.0 mm
02:05 PM 41.3°F5.2°C 25.5°F-3.6°C 53% 6.0 mph S9.7 kmh S 11.0 mph17.7 kmh 29.96 in1014.6 mb 0.00 in0.0 mm 0.00 in0.0 mm 0.00 in0.0 mm
02:10 PM 41.5°F5.3°C 25.2°F-3.8°C 52% 5.0 mph SE8.0 kmh SE 14.0 mph22.5 kmh 29.95 in1014.2 mb 0.00 in0.0 mm 0.00 in0.0 mm 0.00 in0.0 mm
02:15 PM 41.6°F5.3°C 25.3°F-3.7°C 52% 8.0 mph SE12.9 kmh SE 14.0 mph22.5 kmh 29.95 in1014.2 mb 0.00 in0.0 mm 0.00 in0.0 mm 0.00 in0.0 mm
02:20 PM 41.8°F5.4°C 25.0°F-3.9°C 51% 10.0 mph SE16.1 kmh SE 11.0 mph17.7 kmh 29.95 in1014.2 mb 0.00 in0.0 mm 0.00 in0.0 mm 0.00 in0.0 mm
02:25 PM 41.9°F5.5°C 25.1°F-3.8°C 51% 6.0 mph SSE9.7 kmh SSE 11.0 mph17.7 kmh 29.95 in1014.2 mb 0.00 in0.0 mm 0.00 in0.0 mm 0.00 in0.0 mm
02:30 PM 42.0°F5.6°C 24.7°F-4.1°C 50% 10.0 mph ESE16.1 kmh ESE 14.0 mph22.5 kmh 29.95 in1014.2 mb 0.00 in0.0 mm 0.00 in0.0 mm 0.00 in0.0 mm
02:35 PM 42.0°F5.6°C 24.7°F-4.1°C 50% 8.0 mph SSE12.9 kmh SSE 14.0 mph22.5 kmh 29.94 in1013.9 mb 0.00 in0.0 mm 0.00 in0.0 mm 0.00 in0.0 mm
02:40 PM 42.0°F5.6°C 24.7°F-4.1°C 50% 5.0 mph SSE8.0 kmh SSE 14.0 mph22.5 kmh 29.94 in1013.9 mb 0.00 in0.0 mm 0.00 in0.0 mm 0.00 in0.0 mm
02:45 PM 42.1°F5.6°C 24.3°F-4.3°C 49% 8.0 mph SE12.9 kmh SE 14.0 mph22.5 kmh 29.95 in1014.2 mb 0.00 in0.0 mm 0.00 in0.0 mm 0.00 in0.0 mm
02:50 PM 42.1°F5.6°C 24.3°F-4.3°C 49% 8.0 mph SE12.9 kmh SE 14.0 mph22.5 kmh 29.94 in1013.9 mb 0.00 in0.0 mm 0.00 in0.0 mm 0.00 in0.0 mm
02:55 PM 42.1°F5.6°C 24.8°F-4.0°C 50% 7.0 mph SE11.3 kmh SE 14.0 mph22.5 kmh 29.94 in1013.9 mb 0.00 in0.0 mm 0.00 in0.0 mm 0.00 in0.0 mm
03:00 PM 42.1°F5.6°C 24.3°F-4.3°C 49% 5.0 mph SSE8.0 kmh SSE 14.0 mph22.5 kmh 29.95 in1014.2 mb 0.00 in0.0 mm 0.00 in0.0 mm 0.00 in0.0 mm
03:05 PM 42.1°F5.6°C 24.8°F-4.0°C 50% 4.0 mph SE6.4 kmh SE 12.0 mph19.3 kmh 29.93 in1013.5 mb 0.00 in0.0 mm 0.00 in0.0 mm 0.00 in0.0 mm
03:10 PM 41.9°F5.5°C 25.6°F-3.6°C 52% 2.0 mph SE3.2 kmh SE 12.0 mph19.3 kmh 29.94 in1013.9 mb 0.00 in0.0 mm 0.00 in0.0 mm 0.00 in0.0 mm
03:15 PM 41.9°F5.5°C 25.1°F-3.8°C 51% 4.0 mph SE6.4 kmh SE 12.0 mph19.3 kmh 29.94 in1013.9 mb 0.00 in0.0 mm 0.00 in0.0 mm 0.00 in0.0 mm
03:20 PM 42.0°F5.6°C 25.2°F-3.8°C 51% 5.0 mph SSE8.0 kmh SSE 9.0 mph14.5 kmh 29.94 in1013.9 mb 0.00 in0.0 mm 0.00 in0.0 mm 0.00 in0.0 mm
03:25 PM 41.8°F5.4°C 25.5°F-3.6°C 52% 10.0 mph SE16.1 kmh SE 10.0 mph16.1 kmh 29.94 in1013.9 mb 0.00 in0.0 mm 0.00 in0.0 mm 0.00 in0.0 mm
03:30 PM 41.8°F5.4°C 25.5°F-3.6°C 52% 4.0 mph SE6.4 kmh SE 10.0 mph16.1 kmh 29.93 in1013.5 mb 0.00 in0.0 mm 0.00 in0.0 mm 0.00 in0.0 mm
03:35 PM 41.7°F5.4°C 25.4°F-3.7°C 52% 1.0 mph ESE1.6 kmh ESE 9.0 mph14.5 kmh 29.93 in1013.5 mb 0.00 in0.0 mm 0.00 in0.0 mm 0.00 in0.0 mm
03:40 PM 41.7°F5.4°C 25.9°F-3.4°C 53% 1.0 mph SE1.6 kmh SE 9.0 mph14.5 kmh 29.93 in1013.5 mb 0.00 in0.0 mm 0.00 in0.0 mm 0.00 in0.0 mm
03:45 PM 41.7°F5.4°C 26.3°F-3.2°C 54% 4.0 mph SE6.4 kmh SE 13.0 mph20.9 kmh 29.93 in1013.5 mb 0.00 in0.0 mm 0.00 in0.0 mm 0.00 in0.0 mm
03:50 PM 41.7°F5.4°C 25.9°F-3.4°C 53% 11.0 mph SE17.7 kmh SE 12.0 mph19.3 kmh 29.92 in1013.2 mb 0.00 in0.0 mm 0.00 in0.0 mm 0.00 in0.0 mm
03:55 PM 41.6°F5.3°C 26.2°F-3.2°C 54% 7.0 mph SE11.3 kmh SE 13.0 mph20.9 kmh 29.92 in1013.2 mb 0.00 in0.0 mm 0.00 in0.0 mm 0.00 in0.0 mm
04:00 PM 41.5°F5.3°C 25.7°F-3.5°C 53% 9.0 mph SE14.5 kmh SE 17.0 mph27.4 kmh 29.93 in1013.5 mb 0.00 in0.0 mm 0.00 in0.0 mm 0.00 in0.0 mm
04:05 PM 41.6°F5.3°C 25.3°F-3.7°C 52% 9.0 mph SSE14.5 kmh SSE 14.0 mph22.5 kmh 29.92 in1013.2 mb 0.00 in0.0 mm 0.00 in0.0 mm 0.00 in0.0 mm
04:10 PM 41.5°F5.3°C 25.2°F-3.8°C 52% 10.0 mph SE16.1 kmh SE 15.0 mph24.1 kmh 29.92 in1013.2 mb 0.00 in0.0 mm 0.00 in0.0 mm 0.00 in0.0 mm
04:15 PM 41.4°F5.2°C 25.1°F-3.8°C 52% 7.0 mph SE11.3 kmh SE 15.0 mph24.1 kmh 29.93 in1013.5 mb 0.00 in0.0 mm 0.00 in0.0 mm 0.00 in0.0 mm
04:20 PM 41.3°F5.2°C 25.5°F-3.6°C 53% 5.0 mph SE8.0 kmh SE 18.0 mph29.0 kmh 29.93 in1013.5 mb 0.00 in0.0 mm 0.00 in0.0 mm 0.00 in0.0 mm
04:25 PM 41.1°F5.1°C 25.3°F-3.7°C 53% 4.0 mph S6.4 kmh S 18.0 mph29.0 kmh 29.94 in1013.9 mb 0.00 in0.0 mm 0.00 in0.0 mm 0.00 in0.0 mm
04:30 PM 41.0°F5.0°C 25.6°F-3.6°C 54% 8.0 mph SE12.9 kmh SE 18.0 mph29.0 kmh 29.94 in1013.9 mb 0.00 in0.0 mm 0.00 in0.0 mm 0.00 in0.0 mm
04:35 PM 40.8°F4.9°C 25.9°F-3.4°C 55% 11.0 mph SE17.7 kmh SE 11.0 mph17.7 kmh 29.93 in1013.5 mb 0.00 in0.0 mm 0.00 in0.0 mm 0.00 in0.0 mm
04:40 PM 40.9°F4.9°C 25.1°F-3.8°C 53% 4.0 mph SSE6.4 kmh SSE 15.0 mph24.1 kmh 29.93 in1013.5 mb 0.00 in0.0 mm 0.00 in0.0 mm 0.00 in0.0 mm
04:45 PM 40.9°F4.9°C 24.2°F-4.3°C 51% 6.0 mph S9.7 kmh S 15.0 mph24.1 kmh 29.93 in1013.5 mb 0.00 in0.0 mm 0.00 in0.0 mm 0.00 in0.0 mm
04:50 PM 40.8°F4.9°C 24.1°F-4.4°C 51% 9.0 mph S14.5 kmh S 15.0 mph24.1 kmh 29.94 in1013.9 mb 0.00 in0.0 mm 0.00 in0.0 mm 0.00 in0.0 mm
04:55 PM 40.7°F4.8°C 24.5°F-4.2°C 52% 7.0 mph SE11.3 kmh SE 15.0 mph24.1 kmh 29.94 in1013.9 mb 0.00 in0.0 mm 0.00 in0.0 mm 0.00 in0.0 mm
05:00 PM 40.6°F4.8°C 24.8°F-4.0°C 53% 6.0 mph SE9.7 kmh SE 15.0 mph24.1 kmh 29.93 in1013.5 mb 0.00 in0.0 mm 0.00 in0.0 mm 0.00 in0.0 mm
05:05 PM 40.5°F4.7°C 24.3°F-4.3°C 52% 3.0 mph S4.8 kmh S 14.0 mph22.5 kmh 29.93 in1013.5 mb 0.00 in0.0 mm 0.00 in0.0 mm 0.00 in0.0 mm
05:10 PM 40.3°F4.6°C 24.5°F-4.2°C 53% 7.0 mph S11.3 kmh S 14.0 mph22.5 kmh 29.93 in1013.5 mb 0.00 in0.0 mm 0.00 in0.0 mm 0.00 in0.0 mm
05:15 PM 40.1°F4.5°C 24.8°F-4.0°C 54% 7.0 mph S11.3 kmh S 14.0 mph22.5 kmh 29.94 in1013.9 mb 0.00 in0.0 mm 0.00 in0.0 mm 0.00 in0.0 mm
05:20 PM 39.8°F4.3°C 25.4°F-3.7°C 56% 6.0 mph SE9.7 kmh SE 16.0 mph25.7 kmh 29.93 in1013.5 mb 0.00 in0.0 mm 0.00 in0.0 mm 0.00 in0.0 mm
05:25 PM 39.8°F4.3°C 25.4°F-3.7°C 56% 9.0 mph S14.5 kmh S 16.0 mph25.7 kmh 29.93 in1013.5 mb 0.00 in0.0 mm 0.00 in0.0 mm 0.00 in0.0 mm
05:30 PM 39.5°F4.2°C 25.5°F-3.6°C 57% 5.0 mph S8.0 kmh S 16.0 mph25.7 kmh 29.93 in1013.5 mb 0.00 in0.0 mm 0.00 in0.0 mm 0.00 in0.0 mm
05:35 PM 39.4°F4.1°C 25.0°F-3.9°C 56% 7.0 mph S11.3 kmh S 9.0 mph14.5 kmh 29.93 in1013.5 mb 0.00 in0.0 mm 0.00 in0.0 mm 0.00 in0.0 mm
05:40 PM 39.4°F4.1°C 25.5°F-3.6°C 57% 9.0 mph ESE14.5 kmh ESE 13.0 mph20.9 kmh 29.93 in1013.5 mb 0.00 in0.0 mm 0.00 in0.0 mm 0.00 in0.0 mm
05:45 PM 39.5°F4.2°C 24.3°F-4.3°C 54% 10.0 mph SSW16.1 kmh SSW 13.0 mph20.9 kmh 29.93 in1013.5 mb 0.00 in0.0 mm 0.00 in0.0 mm 0.00 in0.0 mm
05:50 PM 39.7°F4.3°C 24.4°F-4.2°C 54% 3.0 mph SSW4.8 kmh SSW 8.0 mph12.9 kmh 29.93 in1013.5 mb 0.00 in0.0 mm 0.00 in0.0 mm 0.00 in0.0 mm
05:55 PM 39.4°F4.1°C 25.0°F-3.9°C 56% 5.0 mph SSE8.0 kmh SSE 10.0 mph16.1 kmh 29.94 in1013.9 mb 0.00 in0.0 mm 0.00 in0.0 mm 0.00 in0.0 mm
06:05 PM 38.9°F3.8°C 25.4°F-3.7°C 58% 3.0 mph S4.8 kmh S 7.0 mph11.3 kmh 29.93 in1013.5 mb 0.00 in0.0 mm 0.00 in0.0 mm 0.00 in0.0 mm
06:10 PM 38.6°F3.7°C 25.5°F-3.6°C 59% 3.0 mph SSW4.8 kmh SSW 7.0 mph11.3 kmh 29.94 in1013.9 mb 0.00 in0.0 mm 0.00 in0.0 mm 0.00 in0.0 mm
06:15 PM 38.5°F3.6°C 25.8°F-3.4°C 60% 3.0 mph S4.8 kmh S 11.0 mph17.7 kmh 29.94 in1013.9 mb 0.00 in0.0 mm 0.00 in0.0 mm 0.00 in0.0 mm
06:20 PM 38.4°F3.6°C 26.1°F-3.3°C 61% 1.0 mph SE1.6 kmh SE 9.0 mph14.5 kmh 29.93 in1013.5 mb 0.00 in0.0 mm 0.00 in0.0 mm 0.00 in0.0 mm
06:25 PM 38.1°F3.4°C 26.3°F-3.2°C 62% 5.0 mph S8.0 kmh S 9.0 mph14.5 kmh 29.93 in1013.5 mb 0.00 in0.0 mm 0.00 in0.0 mm 0.00 in0.0 mm
06:30 PM 37.9°F3.3°C 26.1°F-3.3°C 62% 5.0 mph SSE8.0 kmh SSE 9.0 mph14.5 kmh 29.93 in1013.5 mb 0.00 in0.0 mm 0.00 in0.0 mm 0.00 in0.0 mm
06:35 PM 37.8°F3.2°C 26.4°F-3.1°C 63% 2.0 mph S3.2 kmh S 5.0 mph8.0 kmh 29.93 in1013.5 mb 0.00 in0.0 mm 0.00 in0.0 mm 0.00 in0.0 mm
06:40 PM 37.7°F3.2°C 26.3°F-3.2°C 63% 7.0 mph SSE11.3 kmh SSE 7.0 mph11.3 kmh 29.93 in1013.5 mb 0.00 in0.0 mm 0.00 in0.0 mm 0.00 in0.0 mm
06:45 PM 37.6°F3.1°C 25.8°F-3.4°C 62% 4.0 mph S6.4 kmh S 7.0 mph11.3 kmh 29.93 in1013.5 mb 0.00 in0.0 mm 0.00 in0.0 mm 0.00 in0.0 mm
06:50 PM 37.6°F3.1°C 25.8°F-3.4°C 62% 4.0 mph SE6.4 kmh SE 5.0 mph8.0 kmh 29.92 in1013.2 mb 0.00 in0.0 mm 0.00 in0.0 mm 0.00 in0.0 mm
06:55 PM 37.7°F3.2°C 25.5°F-3.6°C 61% 4.0 mph SSE6.4 kmh SSE 7.0 mph11.3 kmh 29.91 in1012.9 mb 0.00 in0.0 mm 0.00 in0.0 mm 0.00 in0.0 mm
07:00 PM 37.7°F3.2°C 25.9°F-3.4°C 62% 3.0 mph SE4.8 kmh SE 7.0 mph11.3 kmh 29.91 in1012.9 mb 0.00 in0.0 mm 0.00 in0.0 mm 0.00 in0.0 mm
07:05 PM 37.7°F3.2°C 25.9°F-3.4°C 62% Calm Calm 5.0 mph8.0 kmh 29.92 in1013.2 mb 0.00 in0.0 mm 0.00 in0.0 mm 0.00 in0.0 mm
07:10 PM 37.7°F3.2°C 25.5°F-3.6°C 61% 2.0 mph E3.2 kmh E 5.0 mph8.0 kmh 29.91 in1012.9 mb 0.00 in0.0 mm 0.00 in0.0 mm 0.00 in0.0 mm
07:15 PM 38.0°F3.3°C 25.0°F-3.9°C 59% 4.0 mph ESE6.4 kmh ESE 8.0 mph12.9 kmh 29.92 in1013.2 mb 0.00 in0.0 mm 0.00 in0.0 mm 0.00 in0.0 mm
07:20 PM 38.1°F3.4°C 25.5°F-3.6°C 60% 4.0 mph ESE6.4 kmh ESE 9.0 mph14.5 kmh 29.92 in1013.2 mb 0.00 in0.0 mm 0.00 in0.0 mm 0.00 in0.0 mm
07:25 PM 38.1°F3.4°C 25.5°F-3.6°C 60% 1.0 mph ESE1.6 kmh ESE 9.0 mph14.5 kmh 29.92 in1013.2 mb 0.00 in0.0 mm 0.00 in0.0 mm 0.00 in0.0 mm
07:30 PM 38.2°F3.4°C 25.6°F-3.6°C 60% 8.0 mph SE12.9 kmh SE 11.0 mph17.7 kmh 29.92 in1013.2 mb 0.00 in0.0 mm 0.00 in0.0 mm 0.00 in0.0 mm
07:35 PM 38.3°F3.5°C 25.7°F-3.5°C 60% 8.0 mph SE12.9 kmh SE 11.0 mph17.7 kmh 29.93 in1013.5 mb 0.00 in0.0 mm 0.00 in0.0 mm 0.00 in0.0 mm
07:40 PM 38.3°F3.5°C 25.7°F-3.5°C 60% 5.0 mph SE8.0 kmh SE 11.0 mph17.7 kmh 29.93 in1013.5 mb 0.00 in0.0 mm 0.00 in0.0 mm 0.00 in0.0 mm
07:45 PM 38.4°F3.6°C 25.3°F-3.7°C 59% 4.0 mph SE6.4 kmh SE 11.0 mph17.7 kmh 29.93 in1013.5 mb 0.00 in0.0 mm 0.00 in0.0 mm 0.00 in0.0 mm
07:50 PM 38.5°F3.6°C 25.4°F-3.7°C 59% 1.0 mph SE1.6 kmh SE 7.0 mph11.3 kmh 29.93 in1013.5 mb 0.00 in0.0 mm 0.00 in0.0 mm 0.00 in0.0 mm
07:55 PM 38.4°F3.6°C 25.3°F-3.7°C 59% 1.0 mph SE1.6 kmh SE 7.0 mph11.3 kmh 29.93 in1013.5 mb 0.00 in0.0 mm 0.00 in0.0 mm 0.00 in0.0 mm
08:00 PM 38.4°F3.6°C 25.3°F-3.7°C 59% 4.0 mph SE6.4 kmh SE 7.0 mph11.3 kmh 29.93 in1013.5 mb 0.00 in0.0 mm 0.00 in0.0 mm 0.00 in0.0 mm
08:05 PM 38.2°F3.4°C 25.6°F-3.6°C 60% 1.0 mph E1.6 kmh E 9.0 mph14.5 kmh 29.93 in1013.5 mb 0.00 in0.0 mm 0.00 in0.0 mm 0.00 in0.0 mm
08:10 PM 38.1°F3.4°C 25.9°F-3.4°C 61% 4.0 mph SE6.4 kmh SE 9.0 mph14.5 kmh 29.93 in1013.5 mb 0.00 in0.0 mm 0.00 in0.0 mm 0.00 in0.0 mm
08:15 PM 38.0°F3.3°C 25.8°F-3.4°C 61% 2.0 mph ESE3.2 kmh ESE 9.0 mph14.5 kmh 29.93 in1013.5 mb 0.00 in0.0 mm 0.00 in0.0 mm 0.00 in0.0 mm
08:20 PM 37.9°F3.3°C 26.1°F-3.3°C 62% 3.0 mph ESE4.8 kmh ESE 5.0 mph8.0 kmh 29.93 in1013.5 mb 0.00 in0.0 mm 0.00 in0.0 mm 0.00 in0.0 mm
08:25 PM 37.8°F3.2°C 26.0°F-3.3°C 62% 5.0 mph ESE8.0 kmh ESE 5.0 mph8.0 kmh 29.93 in1013.5 mb 0.00 in0.0 mm 0.00 in0.0 mm 0.00 in0.0 mm
08:30 PM 37.8°F3.2°C 26.0°F-3.3°C 62% 3.0 mph SE4.8 kmh SE 8.0 mph12.9 kmh 29.92 in1013.2 mb 0.00 in0.0 mm 0.00 in0.0 mm 0.00 in0.0 mm
08:35 PM 37.8°F3.2°C 26.0°F-3.3°C 62% 4.0 mph E6.4 kmh E 8.0 mph12.9 kmh 29.92 in1013.2 mb 0.00 in0.0 mm 0.00 in0.0 mm 0.00 in0.0 mm
08:40 PM 37.9°F3.3°C 26.5°F-3.1°C 63% 5.0 mph SE8.0 kmh SE 8.0 mph12.9 kmh 29.92 in1013.2 mb 0.00 in0.0 mm 0.00 in0.0 mm 0.00 in0.0 mm
08:45 PM 38.1°F3.4°C 26.3°F-3.2°C 62% 8.0 mph ESE12.9 kmh ESE 8.0 mph12.9 kmh 29.92 in1013.2 mb 0.00 in0.0 mm 0.00 in0.0 mm 0.00 in0.0 mm
08:50 PM 38.3°F3.5°C 26.4°F-3.1°C 62% 1.0 mph ESE1.6 kmh ESE 5.0 mph8.0 kmh 29.92 in1013.2 mb 0.00 in0.0 mm 0.00 in0.0 mm 0.00 in0.0 mm
08:55 PM 38.5°F3.6°C 26.6°F-3.0°C 62% 1.0 mph SE1.6 kmh SE 9.0 mph14.5 kmh 29.92 in1013.2 mb 0.00 in0.0 mm 0.00 in0.0 mm 0.00 in0.0 mm
09:00 PM 38.8°F3.8°C 27.3°F-2.6°C 63% 4.0 mph E6.4 kmh E 9.0 mph14.5 kmh 29.91 in1012.9 mb 0.00 in0.0 mm 0.00 in0.0 mm 0.00 in0.0 mm
09:05 PM 39.0°F3.9°C 28.3°F-2.1°C 65% 1.0 mph SE1.6 kmh SE 4.0 mph6.4 kmh 29.91 in1012.9 mb 0.00 in0.0 mm 0.00 in0.0 mm 0.00 in0.0 mm
09:10 PM 39.3°F4.1°C 28.5°F-1.9°C 65% 2.0 mph E3.2 kmh E 6.0 mph9.7 kmh 29.91 in1012.9 mb 0.00 in0.0 mm 0.00 in0.0 mm 0.00 in0.0 mm
09:15 PM 39.5°F4.2°C 28.7°F-1.8°C 65% 5.0 mph ESE8.0 kmh ESE 7.0 mph11.3 kmh 29.91 in1012.9 mb 0.00 in0.0 mm 0.00 in0.0 mm 0.00 in0.0 mm
09:20 PM 39.5°F4.2°C 28.7°F-1.8°C 65% 2.0 mph ESE3.2 kmh ESE 6.0 mph9.7 kmh 29.91 in1012.9 mb 0.00 in0.0 mm 0.00 in0.0 mm 0.00 in0.0 mm
09:25 PM 39.3°F4.1°C 28.5°F-1.9°C 65% 4.0 mph E6.4 kmh E 8.0 mph12.9 kmh 29.91 in1012.9 mb 0.00 in0.0 mm 0.00 in0.0 mm 0.00 in0.0 mm
09:30 PM 39.0°F3.9°C 29.0°F-1.7°C 67% 7.0 mph E11.3 kmh E 8.0 mph12.9 kmh 29.90 in1012.5 mb 0.00 in0.0 mm 0.00 in0.0 mm 0.00 in0.0 mm
09:35 PM 39.1°F3.9°C 29.5°F-1.4°C 68% 7.0 mph E11.3 kmh E 10.0 mph16.1 kmh 29.90 in1012.5 mb 0.00 in0.0 mm 0.00 in0.0 mm 0.00 in0.0 mm
09:40 PM 39.3°F4.1°C 30.0°F-1.1°C 69% 10.0 mph E16.1 kmh E 15.0 mph24.1 kmh 29.90 in1012.5 mb 0.00 in0.0 mm 0.00 in0.0 mm 0.00 in0.0 mm
09:45 PM 39.4°F4.1°C 29.7°F-1.3°C 68% 5.0 mph E8.0 kmh E 15.0 mph24.1 kmh 29.90 in1012.5 mb 0.00 in0.0 mm 0.00 in0.0 mm 0.00 in0.0 mm
09:50 PM 39.2°F4.0°C 29.2°F-1.6°C 67% 8.0 mph E12.9 kmh E 13.0 mph20.9 kmh 29.90 in1012.5 mb 0.00 in0.0 mm 0.00 in0.0 mm 0.00 in0.0 mm
09:55 PM 39.0°F3.9°C 29.4°F-1.4°C 68% 8.0 mph E12.9 kmh E 13.0 mph20.9 kmh 29.90 in1012.5 mb 0.00 in0.0 mm 0.00 in0.0 mm 0.00 in0.0 mm
10:00 PM 38.8°F3.8°C 30.2°F-1.0°C 71% 5.0 mph E8.0 kmh E 13.0 mph20.9 kmh 29.90 in1012.5 mb 0.00 in0.0 mm 0.00 in0.0 mm 0.00 in0.0 mm
10:05 PM 38.5°F3.6°C 30.6°F-0.8°C 73% 9.0 mph E14.5 kmh E 13.0 mph20.9 kmh 29.89 in1012.2 mb 0.00 in0.0 mm 0.00 in0.0 mm 0.00 in0.0 mm
10:10 PM 38.3°F3.5°C 30.8°F-0.7°C 74% 11.0 mph E17.7 kmh E 14.0 mph22.5 kmh 29.89 in1012.2 mb 0.00 in0.0 mm 0.00 in0.0 mm 0.00 in0.0 mm
10:15 PM 38.1°F3.4°C 30.6°F-0.8°C 74% 5.0 mph E8.0 kmh E 14.0 mph22.5 kmh 29.88 in1011.9 mb 0.00 in0.0 mm 0.00 in0.0 mm 0.00 in0.0 mm
10:20 PM 38.1°F3.4°C 30.6°F-0.8°C 74% 8.0 mph E12.9 kmh E 13.0 mph20.9 kmh 29.88 in1011.9 mb 0.00 in0.0 mm 0.00 in0.0 mm 0.00 in0.0 mm
10:25 PM 38.2°F3.4°C 30.7°F-0.7°C 74% 11.0 mph E17.7 kmh E 14.0 mph22.5 kmh 29.88 in1011.9 mb 0.00 in0.0 mm 0.00 in0.0 mm 0.00 in0.0 mm
10:30 PM 38.3°F3.5°C 30.1°F-1.1°C 72% 13.0 mph E20.9 kmh E 18.0 mph29.0 kmh 29.88 in1011.9 mb 0.00 in0.0 mm 0.00 in0.0 mm 0.00 in0.0 mm
10:35 PM 38.5°F3.6°C 30.3°F-0.9°C 72% 15.0 mph E24.1 kmh E 17.0 mph27.4 kmh 29.88 in1011.9 mb 0.00 in0.0 mm 0.00 in0.0 mm 0.00 in0.0 mm
10:40 PM 38.4°F3.6°C 31.2°F-0.4°C 75% 10.0 mph E16.1 kmh E 19.0 mph30.6 kmh 29.88 in1011.9 mb 0.00 in0.0 mm 0.00 in0.0 mm 0.00 in0.0 mm
10:45 PM 38.1°F3.4°C 31.5°F-0.3°C 77% 7.0 mph E11.3 kmh E 19.0 mph30.6 kmh 29.88 in1011.9 mb 0.00 in0.0 mm 0.00 in0.0 mm 0.00 in0.0 mm
10:50 PM 37.8°F3.2°C 31.9°F-0.1°C 79% 10.0 mph E16.1 kmh E 15.0 mph24.1 kmh 29.89 in1012.2 mb 0.00 in0.0 mm 0.00 in0.0 mm 0.00 in0.0 mm
10:55 PM 37.5°F3.1°C 31.9°F-0.1°C 80% 8.0 mph ENE12.9 kmh ENE 15.0 mph24.1 kmh 29.88 in1011.9 mb 0.00 in0.0 mm 0.00 in0.0 mm 0.00 in0.0 mm
11:00 PM 37.3°F2.9°C 32.3°F0.2°C 82% 15.0 mph E24.1 kmh E 17.0 mph27.4 kmh 29.88 in1011.9 mb 0.00 in0.0 mm 0.00 in0.0 mm 0.00 in0.0 mm
11:05 PM 37.0°F2.8°C 32.3°F0.2°C 83% 11.0 mph E17.7 kmh E 13.0 mph20.9 kmh 29.88 in1011.9 mb 0.00 in0.0 mm 0.00 in0.0 mm 0.00 in0.0 mm
11:10 PM 36.8°F2.7°C 32.4°F0.2°C 84% 7.0 mph E11.3 kmh E 13.0 mph20.9 kmh 29.88 in1011.9 mb 0.00 in0.0 mm 0.00 in0.0 mm 0.00 in0.0 mm
11:15 PM 36.6°F2.6°C 32.5°F0.3°C 85% 9.0 mph E14.5 kmh E 13.0 mph20.9 kmh 29.88 in1011.9 mb 0.00 in0.0 mm 0.00 in0.0 mm 0.00 in0.0 mm
11:20 PM 36.5°F2.5°C 32.4°F0.2°C 85% 12.0 mph E19.3 kmh E 16.0 mph25.7 kmh 29.88 in1011.9 mb 0.00 in0.0 mm 0.00 in0.0 mm 0.00 in0.0 mm
11:25 PM 36.5°F2.5°C 32.7°F0.4°C 86% 12.0 mph E19.3 kmh E 16.0 mph25.7 kmh 29.87 in1011.5 mb 0.00 in0.0 mm 0.00 in0.0 mm 0.00 in0.0 mm
11:30 PM 36.3°F2.4°C 32.5°F0.3°C 86% 5.0 mph SE8.0 kmh SE 16.0 mph25.7 kmh 29.88 in1011.9 mb 0.00 in0.0 mm 0.00 in0.0 mm 0.00 in0.0 mm
11:35 PM 36.3°F2.4°C 32.8°F0.4°C 87% 2.0 mph ESE3.2 kmh ESE 11.0 mph17.7 kmh 29.87 in1011.5 mb 0.00 in0.0 mm 0.00 in0.0 mm 0.00 in0.0 mm
11:40 PM 36.2°F2.3°C 32.7°F0.4°C 87% 3.0 mph E4.8 kmh E 11.0 mph17.7 kmh 29.87 in1011.5 mb 0.00 in0.0 mm 0.00 in0.0 mm 0.00 in0.0 mm
11:45 PM 36.2°F2.3°C 32.7°F0.4°C 87% 5.0 mph E8.0 kmh E 11.0 mph17.7 kmh 29.86 in1011.2 mb 0.00 in0.0 mm 0.00 in0.0 mm 0.00 in0.0 mm
11:50 PM 36.1°F2.3°C 32.6°F0.3°C 87% 7.0 mph E11.3 kmh E 12.0 mph19.3 kmh 29.86 in1011.2 mb 0.00 in0.0 mm 0.00 in0.0 mm 0.00 in0.0 mm
11:55 PM 36.1°F2.3°C 32.6°F0.3°C 87% 9.0 mph E14.5 kmh E 14.0 mph22.5 kmh 29.85 in1010.8 mb 0.00 in0.0 mm 0.00 in0.0 mm 0.00 in0.0 mm